Time;durP1;ratioP1;P1;durP2;ratioP2;P2;SDS_P1;SDS_P2;PMS_P1;PMS_P2;Temp;Humidity;BMP_temperature;BMP_pressure;BME280_temperature;BME280_humidity;BME280_pressure;Samples;Min_cycle;Max_cycle;Signal;HPM_P1;HPM_P2
2023/07/27 00:02:22;;;;;;;1.70;1.60;;;12.70;99.90;;;;;;5044298;28;20569;-50
2023/07/27 00:04:48;;;;;;;1.73;1.63;;;12.70;99.90;;;;;;5045806;28;20966;-50
2023/07/27 00:07:15;;;;;;;2.17;2.07;;;12.70;99.90;;;;;;5046141;28;20987;-51
2023/07/27 00:09:41;;;;;;;1.90;1.80;;;12.60;99.90;;;;;;5046565;28;20458;-51
2023/07/27 00:12:08;;;;;;;3.33;1.67;;;12.60;99.90;;;;;;5046065;28;21006;-51
2023/07/27 00:14:35;;;;;;;5.10;2.10;;;12.60;99.90;;;;;;5048986;28;20457;-50
2023/07/27 00:17:01;;;;;;;2.63;1.50;;;12.60;99.90;;;;;;5048524;28;20482;-51
2023/07/27 00:19:29;;;;;;;1.60;1.50;;;12.60;99.90;;;;;;5048825;28;20490;-51
2023/07/27 00:21:56;;;;;;;2.00;1.90;;;12.60;99.90;;;;;;5048001;28;20589;-50
2023/07/27 00:24:22;;;;;;;1.47;1.47;;;12.60;99.90;;;;;;5044341;28;20544;-51
2023/07/27 00:26:49;;;;;;;1.70;1.60;;;12.50;99.90;;;;;;5050137;28;20565;-52
2023/07/27 00:29:15;;;;;;;2.20;1.70;;;12.50;99.90;;;;;;5047836;28;20952;-51
2023/07/27 00:31:42;;;;;;;1.40;1.30;;;12.50;99.90;;;;;;5047378;28;20494;-51
2023/07/27 00:34:08;;;;;;;1.80;1.70;;;12.30;99.90;;;;;;5048296;28;20458;-51
2023/07/27 00:36:36;;;;;;;3.37;1.60;;;12.40;99.90;;;;;;5050343;28;20462;-51
2023/07/27 00:39:03;;;;;;;1.60;1.50;;;12.20;99.90;;;;;;5045980;28;20450;-52
2023/07/27 00:41:30;;;;;;;1.70;1.60;;;12.20;99.90;;;;;;5041625;28;20498;-50
2023/07/27 00:43:56;;;;;;;2.07;1.60;;;12.20;99.90;;;;;;5047283;28;20572;-54
2023/07/27 00:46:23;;;;;;;1.97;1.70;;;12.20;99.90;;;;;;5047207;28;20461;-54
2023/07/27 00:48:50;;;;;;;1.70;1.60;;;12.20;99.90;;;;;;5048255;28;20494;-53
2023/07/27 00:51:17;;;;;;;2.30;1.80;;;12.10;99.90;;;;;;5049003;28;20999;-55
2023/07/27 00:53:44;;;;;;;2.93;1.70;;;12.10;99.90;;;;;;5049599;28;20532;-53
2023/07/27 00:56:11;;;;;;;4.93;2.10;;;11.90;99.90;;;;;;5048031;28;20485;-55
2023/07/27 00:58:39;;;;;;;2.70;1.63;;;12.00;99.90;;;;;;5041334;28;20478;-54
2023/07/27 01:01:07;;;;;;;1.90;1.80;;;12.00;99.90;;;;;;5046201;28;20454;-55
2023/07/27 01:03:35;;;;;;;1.50;1.40;;;11.90;99.90;;;;;;5045198;28;20490;-58
2023/07/27 01:06:02;;;;;;;2.33;1.50;;;11.90;99.90;;;;;;5049265;28;20608;-59
2023/07/27 01:08:29;;;;;;;1.93;1.70;;;11.90;99.90;;;;;;5046928;28;20513;-58
2023/07/27 01:11:03;;;;;;;2.27;1.80;;;11.90;99.90;;;;;;5054203;28;20519;-58
2023/07/27 01:13:38;;;;;;;2.13;1.90;;;11.70;99.90;;;;;;5047292;28;20515;-58
2023/07/27 01:16:09;;;;;;;1.73;1.63;;;11.70;99.90;;;;;;5051033;28;20485;-58
2023/07/27 01:18:45;;;;;;;2.13;1.67;;;11.70;99.90;;;;;;5047973;28;20549;-58
2023/07/27 01:21:17;;;;;;;2.13;1.73;;;11.60;99.90;;;;;;5053067;28;20457;-58
2023/07/27 01:24:21;;;;;;;3.60;1.80;;;11.50;99.90;;;;;;5049732;28;20482;-58
2023/07/27 01:27:15;;;;;;;1.47;1.37;;;11.50;99.90;;;;;;5050102;28;20574;-59
2023/07/27 01:29:56;;;;;;;1.97;1.67;;;11.40;99.90;;;;;;5044492;28;20497;-58
2023/07/27 01:32:25;;;;;;;1.80;1.70;;;11.40;99.90;;;;;;5048399;28;20477;-58
2023/07/27 01:34:56;;;;;;;2.10;1.90;;;11.40;99.90;;;;;;5051243;28;20465;-58
2023/07/27 01:37:25;;;;;;;2.23;1.80;;;11.30;99.90;;;;;;5051148;28;20544;-58
2023/07/27 01:39:52;;;;;;;4.17;1.87;;;11.30;99.90;;;;;;5051833;28;20489;-58
2023/07/27 01:42:20;;;;;;;2.07;1.97;;;11.20;99.90;;;;;;5048405;28;21041;-58
2023/07/27 01:44:48;;;;;;;1.90;1.80;;;11.20;99.90;;;;;;5053289;28;20537;-58
2023/07/27 01:47:16;;;;;;;2.50;1.83;;;11.20;99.90;;;;;;5043308;28;20511;-59
2023/07/27 01:49:45;;;;;;;2.50;1.67;;;11.10;99.90;;;;;;5051855;28;20553;-58
2023/07/27 01:52:14;;;;;;;1.53;1.50;;;11.10;99.90;;;;;;5039720;28;20701;-58
2023/07/27 01:54:40;;;;;;;1.67;1.57;;;11.00;99.90;;;;;;5046283;28;20500;-58
2023/07/27 01:57:08;;;;;;;1.90;1.80;;;11.00;99.90;;;;;;5053722;28;20509;-50
2023/07/27 01:59:38;;;;;;;2.50;2.10;;;11.10;99.90;;;;;;5049260;28;20484;-51
2023/07/27 02:02:05;;;;;;;2.30;1.63;;;11.00;99.90;;;;;;5052575;28;20560;-51
2023/07/27 02:04:32;;;;;;;2.40;1.77;;;11.00;99.90;;;;;;5047642;28;20907;-51
2023/07/27 02:07:00;;;;;;;2.07;1.70;;;10.90;99.90;;;;;;5050474;28;20584;-51
2023/07/27 02:09:27;;;;;;;1.87;1.70;;;10.90;99.90;;;;;;5046886;28;20494;-52
2023/07/27 02:11:57;;;;;;;2.73;2.40;;;10.80;99.90;;;;;;5046168;28;20615;-50
2023/07/27 02:14:30;;;;;;;2.87;1.73;;;10.80;99.90;;;;;;5050246;28;20537;-51
2023/07/27 02:17:00;;;;;;;2.20;1.90;;;10.80;99.90;;;;;;5052196;28;20466;-51
2023/07/27 02:19:30;;;;;;;1.60;1.50;;;10.80;99.90;;;;;;5048126;28;20537;-50
2023/07/27 02:21:57;;;;;;;3.57;2.00;;;10.80;99.90;;;;;;5048790;28;20568;-51
2023/07/27 02:24:26;;;;;;;1.80;1.70;;;10.80;99.90;;;;;;5052400;28;20556;-51
2023/07/27 02:26:53;;;;;;;1.90;1.70;;;10.80;99.90;;;;;;5052425;28;20456;-51
2023/07/27 02:29:19;;;;;;;2.83;2.37;;;10.80;99.90;;;;;;5054143;28;20877;-51
2023/07/27 02:31:46;;;;;;;2.37;2.17;;;10.70;99.90;;;;;;5044309;28;21028;-52
2023/07/27 02:34:12;;;;;;;2.03;1.93;;;10.70;99.90;;;;;;5047816;28;20550;-51
2023/07/27 02:36:39;;;;;;;2.40;2.00;;;10.70;99.90;;;;;;5045575;28;20772;-52
2023/07/27 02:39:05;;;;;;;2.67;2.10;;;10.70;99.90;;;;;;5049953;28;20481;-52
2023/07/27 02:41:33;;;;;;;1.87;1.77;;;10.70;99.90;;;;;;5048752;28;20493;-52
2023/07/27 02:44:00;;;;;;;2.40;2.20;;;10.70;99.90;;;;;;5050155;28;20556;-58
2023/07/27 02:46:26;;;;;;;2.23;2.10;;;10.80;99.90;;;;;;5050621;28;20548;-57
2023/07/27 02:48:55;;;;;;;2.60;2.40;;;10.90;99.90;;;;;;5043926;28;20582;-59
2023/07/27 02:51:21;;;;;;;2.77;2.47;;;10.90;99.90;;;;;;5046258;28;20484;-58
2023/07/27 02:53:48;;;;;;;2.30;2.20;;;11.00;99.90;;;;;;5048059;28;20919;-57
2023/07/27 02:56:14;;;;;;;3.13;2.03;;;11.00;99.90;;;;;;5050200;28;20541;-57
2023/07/27 02:58:42;;;;;;;2.40;2.20;;;11.00;99.90;;;;;;5052205;28;20549;-58
2023/07/27 03:01:09;;;;;;;7.13;2.60;;;11.00;99.90;;;;;;5049110;28;20455;-51
2023/07/27 03:03:35;;;;;;;2.30;2.10;;;11.00;99.90;;;;;;5050294;28;20509;-52
2023/07/27 03:06:03;;;;;;;2.53;2.33;;;11.00;99.90;;;;;;5050345;28;20521;-51
2023/07/27 03:08:30;;;;;;;3.90;2.10;;;11.10;99.90;;;;;;5050749;28;20606;-51
2023/07/27 03:11:01;;;;;;;3.23;2.80;;;11.00;99.90;;;;;;5046682;28;21069;-51
2023/07/27 03:13:28;;;;;;;2.83;2.27;;;11.00;99.90;;;;;;5048755;28;21068;-50
2023/07/27 03:15:55;;;;;;;2.70;2.50;;;11.00;99.90;;;;;;5050554;28;20868;-51
2023/07/27 03:18:22;;;;;;;8.43;2.97;;;11.00;99.90;;;;;;5050254;28;20535;-51
2023/07/27 03:20:49;;;;;;;4.30;2.20;;;11.00;99.90;;;;;;5043075;28;21006;-51
2023/07/27 03:23:16;;;;;;;2.57;2.47;;;11.10;99.90;;;;;;5044908;28;20556;-50
2023/07/27 03:25:42;;;;;;;3.10;2.90;;;11.00;99.90;;;;;;5050268;28;20554;-50
2023/07/27 03:28:09;;;;;;;4.43;2.60;;;11.00;99.90;;;;;;5047012;28;20630;-50
2023/07/27 03:30:36;;;;;;;3.57;2.77;;;11.00;99.90;;;;;;5048195;28;20584;-52
2023/07/27 03:33:04;;;;;;;3.87;2.80;;;11.10;99.90;;;;;;5047520;28;20837;-51
2023/07/27 03:35:31;;;;;;;3.77;2.83;;;11.10;99.90;;;;;;5050349;28;20496;-51
2023/07/27 03:37:58;;;;;;;2.70;2.50;;;11.20;99.90;;;;;;5048652;28;20478;-51
2023/07/27 03:40:24;;;;;;;3.40;2.77;;;11.20;99.90;;;;;;5048219;28;20602;-51
2023/07/27 03:42:51;;;;;;;3.10;2.80;;;11.20;99.90;;;;;;5048829;28;20965;-50
2023/07/27 03:45:18;;;;;;;2.90;2.63;;;11.20;99.90;;;;;;5047782;28;20544;-51
2023/07/27 03:47:45;;;;;;;2.73;2.53;;;11.20;99.90;;;;;;5045413;28;20594;-51
2023/07/27 03:50:13;;;;;;;3.20;3.00;;;11.20;99.90;;;;;;5048847;28;20544;-51
2023/07/27 03:52:39;;;;;;;3.60;3.30;;;11.20;99.90;;;;;;5044174;28;20568;-51
2023/07/27 03:55:06;;;;;;;5.63;2.70;;;11.20;99.90;;;;;;5049539;28;20908;-51
2023/07/27 03:57:33;;;;;;;6.57;2.90;;;11.30;99.80;;;;;;5052055;28;20231;-51
2023/07/27 04:00:00;;;;;;;4.17;3.00;;;11.30;99.90;;;;;;5047013;28;20552;-50
2023/07/27 04:02:28;;;;;;;3.90;3.00;;;11.30;99.40;;;;;;5047541;28;20625;-51
2023/07/27 04:04:54;;;;;;;3.27;3.07;;;11.30;99.90;;;;;;5045633;28;20458;-51
2023/07/27 04:07:22;;;;;;;6.57;3.00;;;11.30;99.90;;;;;;5041338;28;20458;-51
2023/07/27 04:09:49;;;;;;;3.30;3.10;;;11.30;99.90;;;;;;5049657;28;20587;-51
2023/07/27 04:12:15;;;;;;;3.50;3.30;;;11.40;99.70;;;;;;5042532;28;20903;-50
2023/07/27 04:14:42;;;;;;;10.83;3.27;;;11.40;99.20;;;;;;5050140;28;20549;-51
2023/07/27 04:17:09;;;;;;;3.20;3.00;;;11.50;99.10;;;;;;5043407;28;21038;-51
2023/07/27 04:19:35;;;;;;;4.10;3.70;;;11.50;99.20;;;;;;5041468;28;20463;-51
2023/07/27 04:22:02;;;;;;;3.70;3.03;;;11.50;98.70;;;;;;5046702;28;20557;-51
2023/07/27 04:24:30;;;;;;;4.40;2.90;;;11.50;99.00;;;;;;5049043;28;20497;-50
2023/07/27 04:26:57;;;;;;;3.83;3.27;;;11.60;99.30;;;;;;5048732;28;20500;-51
2023/07/27 04:29:23;;;;;;;2.80;2.60;;;11.60;99.00;;;;;;5048942;28;20921;-52
2023/07/27 04:31:50;;;;;;;4.53;3.60;;;11.70;99.90;;;;;;5048206;28;20546;-51
2023/07/27 04:34:16;;;;;;;3.43;3.23;;;11.70;99.90;;;;;;5042731;28;20541;-52
2023/07/27 04:36:43;;;;;;;4.40;3.30;;;11.70;99.80;;;;;;5047259;28;20545;-52
2023/07/27 04:39:09;;;;;;;5.10;3.90;;;11.80;99.90;;;;;;5043592;28;20523;-53
2023/07/27 04:41:37;;;;;;;3.70;3.40;;;11.80;99.90;;;;;;5048517;28;20552;-53
2023/07/27 04:44:04;;;;;;;4.07;3.10;;;11.90;99.80;;;;;;5046859;28;20549;-52
2023/07/27 04:46:31;;;;;;;5.30;3.47;;;11.90;99.80;;;;;;5049236;28;20466;-52
2023/07/27 04:48:57;;;;;;;3.60;3.20;;;12.00;99.90;;;;;;5045501;28;20560;-53
2023/07/27 04:51:24;;;;;;;6.67;3.73;;;12.10;99.90;;;;;;5045942;28;20916;-52
2023/07/27 04:53:50;;;;;;;3.57;2.77;;;12.20;99.90;;;;;;5047590;28;20564;-52
2023/07/27 04:56:17;;;;;;;7.03;3.50;;;12.20;99.90;;;;;;5048442;28;20540;-52
2023/07/27 04:58:45;;;;;;;3.07;2.87;;;12.30;99.90;;;;;;5047519;28;20537;-52
2023/07/27 05:01:11;;;;;;;4.00;3.70;;;12.40;99.90;;;;;;5049827;28;20552;-52
2023/07/27 05:03:38;;;;;;;5.40;3.30;;;12.40;99.90;;;;;;5047262;28;20577;-52
2023/07/27 05:06:04;;;;;;;3.50;3.20;;;12.50;99.90;;;;;;5045368;28;20462;-52
2023/07/27 05:08:31;;;;;;;2.90;2.70;;;12.60;99.90;;;;;;5040606;28;20917;-53
2023/07/27 05:10:57;;;;;;;3.60;2.93;;;12.70;99.90;;;;;;5049474;28;20585;-52
2023/07/27 05:13:24;;;;;;;4.50;3.30;;;12.80;99.90;;;;;;5043814;28;20508;-52
2023/07/27 05:15:52;;;;;;;4.23;3.23;;;12.90;99.90;;;;;;5049488;28;20461;-52
2023/07/27 05:18:18;;;;;;;3.73;3.40;;;13.00;99.90;;;;;;5048313;28;20454;-52
2023/07/27 05:20:45;;;;;;;2.80;2.60;;;13.00;99.90;;;;;;5049165;28;20513;-52
2023/07/27 05:23:11;;;;;;;7.67;3.07;;;13.10;99.90;;;;;;5046050;28;20469;-53
2023/07/27 05:25:38;;;;;;;4.30;3.00;;;13.20;99.90;;;;;;5045922;28;20613;-52
2023/07/27 05:28:04;;;;;;;5.10;3.23;;;13.30;99.90;;;;;;5048587;28;20620;-52
2023/07/27 05:30:32;;;;;;;16.83;3.30;;;13.40;99.90;;;;;;5045350;28;20953;-52
2023/07/27 05:33:00;;;;;;;5.87;3.07;;;13.50;99.90;;;;;;5046825;28;20521;-52
2023/07/27 05:35:26;;;;;;;11.83;2.77;;;13.50;99.90;;;;;;5048928;28;21066;-52
2023/07/27 05:37:53;;;;;;;2.90;2.70;;;13.60;99.90;;;;;;5044375;28;20561;-52
2023/07/27 05:40:19;;;;;;;2.90;2.67;;;13.60;99.90;;;;;;5046377;28;20523;-53
2023/07/27 05:42:46;;;;;;;4.00;2.70;;;13.70;99.90;;;;;;5049221;28;20525;-53
2023/07/27 05:45:12;;;;;;;4.07;3.10;;;13.80;99.90;;;;;;5039978;28;20553;-53
2023/07/27 05:47:39;;;;;;;5.27;2.87;;;13.80;99.90;;;;;;5038895;28;20497;-52
2023/07/27 05:50:08;;;;;;;3.03;2.83;;;13.90;99.90;;;;;;5038702;28;21044;-52
2023/07/27 05:52:35;;;;;;;3.53;3.23;;;14.00;99.90;;;;;;5048865;28;20481;-52
2023/07/27 05:55:01;;;;;;;5.27;2.77;;;14.10;99.90;;;;;;5048504;28;20557;-52
2023/07/27 05:57:28;;;;;;;3.33;2.80;;;14.30;99.90;;;;;;5046850;28;20544;-52
2023/07/27 05:59:54;;;;;;;5.20;3.27;;;14.40;99.90;;;;;;5049323;28;20485;-51
2023/07/27 06:02:21;;;;;;;2.90;2.70;;;14.60;99.90;;;;;;5047596;28;20556;-53
2023/07/27 06:04:48;;;;;;;3.47;3.17;;;14.60;99.90;;;;;;5050657;28;21060;-52
2023/07/27 06:07:16;;;;;;;4.23;2.80;;;14.80;99.90;;;;;;5049822;28;20466;-51
2023/07/27 06:09:42;;;;;;;5.20;3.40;;;14.90;75.90;;;;;;5048817;28;20481;-51
2023/07/27 06:12:11;;;;;;;3.30;3.00;;;15.00;28.50;;;;;;5049917;28;20877;-53
2023/07/27 06:14:38;;;;;;;3.90;2.80;;;15.10;31.00;;;;;;5048595;28;20465;-52
2023/07/27 06:17:05;;;;;;;2.93;2.63;;;15.20;27.30;;;;;;5047356;28;20470;-51
2023/07/27 06:19:31;;;;;;;3.47;3.10;;;15.30;43.40;;;;;;5044341;28;20536;-51
2023/07/27 06:21:58;;;;;;;3.63;3.33;;;15.40;51.90;;;;;;5044616;28;20561;-51
2023/07/27 06:24:26;;;;;;;3.33;3.03;;;15.50;46.10;;;;;;5049538;28;20466;-53
2023/07/27 06:26:52;;;;;;;5.17;3.73;;;15.70;53.60;;;;;;5051304;28;20564;-55
2023/07/27 06:29:19;;;;;;;3.47;3.17;;;15.80;54.90;;;;;;5047993;28;20485;-54
2023/07/27 06:31:45;;;;;;;5.20;3.87;;;15.90;63.60;;;;;;5050160;28;22957;-54
2023/07/27 06:34:12;;;;;;;4.00;3.60;;;16.00;68.30;;;;;;5042910;28;20544;-54
2023/07/27 06:36:38;;;;;;;5.07;3.80;;;16.00;92.90;;;;;;5051654;28;20549;-54
2023/07/27 06:39:05;;;;;;;5.07;3.70;;;16.10;93.20;;;;;;5047257;28;20493;-54
2023/07/27 06:41:33;;;;;;;9.80;3.67;;;16.10;85.80;;;;;;5050535;28;20464;-54
2023/07/27 06:44:00;;;;;;;5.90;3.97;;;16.20;77.50;;;;;;5048528;28;20509;-53
2023/07/27 06:46:27;;;;;;;11.70;4.07;;;16.20;83.10;;;;;;5051592;28;20458;-54
2023/07/27 06:48:53;;;;;;;5.03;3.97;;;16.30;86.40;;;;;;5047483;28;20573;-53
2023/07/27 06:51:22;;;;;;;3.90;3.60;;;16.30;80.10;;;;;;5044026;28;20558;-53
2023/07/27 06:53:49;;;;;;;6.03;3.40;;;16.40;89.50;;;;;;5048385;28;21301;-55
2023/07/27 06:56:17;;;;;;;7.63;3.57;;;16.40;96.90;;;;;;5052372;28;20541;-54
2023/07/27 06:58:44;;;;;;;3.77;3.37;;;16.40;92.00;;;;;;5051600;28;20462;-54
2023/07/27 07:01:11;;;;;;;8.43;4.00;;;16.50;87.90;;;;;;5039137;28;20549;-54
2023/07/27 07:03:38;;;;;;;5.93;3.97;;;16.50;87.50;;;;;;5042850;28;20486;-55
2023/07/27 07:06:04;;;;;;;10.57;3.67;;;16.60;85.00;;;;;;5042286;28;20558;-54
2023/07/27 07:08:31;;;;;;;4.70;3.97;;;16.60;83.90;;;;;;5052699;28;20851;-54
2023/07/27 07:10:58;;;;;;;6.20;3.53;;;16.60;96.50;;;;;;5044183;28;20467;-53
2023/07/27 07:13:25;;;;;;;8.93;3.67;;;16.70;92.20;;;;;;5051501;28;20591;-54
2023/07/27 07:15:53;;;;;;;5.53;3.40;;;16.80;93.80;;;;;;5044828;28;20446;-54
2023/07/27 07:18:20;;;;;;;5.93;3.83;;;17.00;96.00;;;;;;5043590;28;20458;-55
2023/07/27 07:20:47;;;;;;;10.50;4.00;;;17.10;99.90;;;;;;5050777;28;20962;-54
2023/07/27 07:23:13;;;;;;;7.73;3.57;;;17.20;99.90;;;;;;5052899;28;20485;-54
2023/07/27 07:25:40;;;;;;;5.17;4.63;;;17.40;99.90;;;;;;5051730;28;20525;-53
2023/07/27 07:28:07;;;;;;;4.50;4.10;;;17.40;99.90;;;;;;5051571;28;20450;-55
2023/07/27 07:30:34;;;;;;;5.47;3.50;;;17.40;99.90;;;;;;5052289;28;20485;-53
2023/07/27 07:33:01;;;;;;;4.87;3.77;;;17.30;99.90;;;;;;5052192;28;20524;-53
2023/07/27 07:35:28;;;;;;;3.77;3.30;;;17.20;99.90;;;;;;5050650;28;20441;-54
2023/07/27 07:37:55;;;;;;;4.30;3.43;;;17.30;99.90;;;;;;5051267;28;20489;-53
2023/07/27 07:40:24;;;;;;;3.97;3.57;;;17.30;99.90;;;;;;5052846;28;20498;-54
2023/07/27 07:42:51;;;;;;;5.17;3.33;;;17.30;99.90;;;;;;5052904;28;20478;-54
2023/07/27 07:45:18;;;;;;;3.73;3.37;;;17.40;99.90;;;;;;5052338;28;20500;-53
2023/07/27 07:47:44;;;;;;;6.13;3.90;;;17.40;99.90;;;;;;5051616;28;20457;-54
2023/07/27 07:50:12;;;;;;;4.97;3.40;;;17.30;99.90;;;;;;5049448;28;20569;-54
2023/07/27 07:52:39;;;;;;;4.80;3.77;;;17.40;99.90;;;;;;5045269;28;20486;-55
2023/07/27 07:55:07;;;;;;;4.10;3.70;;;17.40;99.90;;;;;;5044359;28;20533;-53
2023/07/27 07:57:34;;;;;;;3.63;3.33;;;17.50;99.90;;;;;;5050622;28;20951;-54
2023/07/27 08:00:00;;;;;;;5.27;3.40;;;17.60;99.90;;;;;;5049306;28;20462;-54
2023/07/27 08:02:27;;;;;;;4.50;3.57;;;17.60;99.90;;;;;;5046351;28;20466;-54
2023/07/27 08:04:54;;;;;;;4.50;3.00;;;17.70;99.90;;;;;;5047405;28;20458;-54
2023/07/27 08:07:22;;;;;;;7.63;3.50;;;17.70;99.90;;;;;;5051723;28;20958;-54
2023/07/27 08:09:48;;;;;;;6.70;3.50;;;17.80;99.90;;;;;;5050317;28;20481;-53
2023/07/27 08:12:16;;;;;;;4.23;3.73;;;17.80;99.90;;;;;;5052143;28;20468;-53
2023/07/27 08:14:43;;;;;;;12.90;4.30;;;17.90;99.90;;;;;;5051457;28;20443;-53
2023/07/27 08:17:09;;;;;;;4.17;3.60;;;18.00;99.90;;;;;;5052031;28;20529;-53
2023/07/27 08:19:36;;;;;;;3.63;3.30;;;18.10;99.90;;;;;;5050698;28;21330;-54
2023/07/27 08:22:02;;;;;;;6.57;4.17;;;18.20;99.90;;;;;;5051911;28;20523;-54
2023/07/27 08:24:31;;;;;;;12.27;4.90;;;18.30;99.90;;;;;;5050837;28;20453;-53
2023/07/27 08:26:59;;;;;;;5.30;3.80;;;18.20;99.90;;;;;;5041931;28;20463;-53
2023/07/27 08:29:25;;;;;;;3.93;3.67;;;18.20;99.90;;;;;;5048686;28;20485;-54
2023/07/27 08:31:52;;;;;;;4.03;3.53;;;18.10;99.90;;;;;;5048305;28;20523;-53
2023/07/27 08:34:18;;;;;;;3.77;3.43;;;18.10;99.90;;;;;;5042535;28;20466;-54
2023/07/27 08:36:47;;;;;;;10.30;3.20;;;18.20;99.90;;;;;;5051867;28;20470;-54
2023/07/27 08:39:13;;;;;;;4.20;3.70;;;18.30;99.90;;;;;;5043274;28;20466;-54
2023/07/27 08:41:42;;;;;;;7.30;4.07;;;18.40;99.90;;;;;;5050552;28;20524;-55
2023/07/27 08:44:09;;;;;;;4.37;3.53;;;18.60;99.90;;;;;;5039267;28;20486;-54
2023/07/27 08:46:36;;;;;;;4.47;4.03;;;18.50;99.90;;;;;;5045849;28;20837;-54
2023/07/27 08:49:04;;;;;;;7.40;4.27;;;18.60;99.90;;;;;;5040474;28;20553;-54
2023/07/27 08:51:32;;;;;;;7.20;3.43;;;18.80;99.90;;;;;;5047661;28;20562;-54
2023/07/27 08:53:58;;;;;;;8.80;3.73;;;19.00;99.90;;;;;;5046431;28;20568;-54
2023/07/27 08:56:25;;;;;;;4.80;3.53;;;19.10;99.90;;;;;;5046530;28;20524;-54
2023/07/27 08:58:53;;;;;;;3.83;3.43;;;19.20;27.00;;;;;;5049211;28;21027;-54
2023/07/27 09:01:20;;;;;;;4.07;3.67;;;19.30;23.50;;;;;;5050847;28;20488;-53
2023/07/27 09:03:47;;;;;;;4.37;3.93;;;19.30;74.00;;;;;;5046423;28;20532;-54
2023/07/27 09:06:13;;;;;;;8.43;3.17;;;19.30;93.50;;;;;;5045373;28;20549;-53
2023/07/27 09:08:41;;;;;;;10.33;3.97;;;19.40;80.40;;;;;;5048285;28;20477;-54
2023/07/27 09:11:09;;;;;;;8.57;3.63;;;19.50;97.30;;;;;;5050363;28;20485;-54
2023/07/27 09:13:36;;;;;;;5.17;3.53;;;19.60;86.00;;;;;;5049329;28;20481;-53
2023/07/27 09:16:05;;;;;;;7.93;3.67;;;19.70;90.80;;;;;;5046311;28;20492;-53
2023/07/27 09:18:35;;;;;;;3.20;3.00;;;19.60;93.70;;;;;;5043904;28;20465;-53
2023/07/27 09:21:07;;;;;;;4.40;3.67;;;19.50;99.90;;;;;;5047242;28;20462;-55
2023/07/27 09:23:34;;;;;;;6.23;3.57;;;19.50;91.80;;;;;;5044556;28;20864;-55
2023/07/27 09:26:01;;;;;;;4.67;3.37;;;19.40;99.90;;;;;;5045320;28;20548;-54
2023/07/27 09:28:28;;;;;;;3.53;3.23;;;19.40;99.90;;;;;;5047289;28;20541;-53
2023/07/27 09:30:58;;;;;;;5.20;3.10;;;19.70;99.90;;;;;;5051866;28;21118;-54
2023/07/27 09:33:26;;;;;;;4.70;3.20;;;19.90;99.90;;;;;;5052730;28;20512;-54
2023/07/27 09:35:53;;;;;;;4.90;3.23;;;20.10;99.90;;;;;;5051957;28;20500;-53
2023/07/27 09:38:24;;;;;;;10.23;4.10;;;20.50;99.90;;;;;;5049129;28;24765;-54
2023/07/27 09:40:51;;;;;;;5.30;4.00;;;20.60;99.90;;;;;;5054199;28;20458;-54
2023/07/27 09:43:18;;;;;;;3.33;3.03;;;20.70;99.90;;;;;;5052948;28;20551;-54
2023/07/27 09:45:44;;;;;;;6.03;3.70;;;20.50;99.90;;;;;;5051672;28;20540;-53
2023/07/27 09:48:11;;;;;;;4.60;3.40;;;20.50;99.90;;;;;;5050803;28;20531;-57
2023/07/27 09:50:41;;;;;;;7.30;3.83;;;20.50;99.90;;;;;;5049002;28;20572;-54
2023/07/27 09:53:11;;;;;;;3.50;3.20;;;20.80;99.90;;;;;;5046993;28;20505;-54
2023/07/27 09:55:39;;;;;;;5.33;3.17;;;21.10;99.90;;;;;;5045536;28;20890;-53
2023/07/27 09:58:06;;;;;;;4.03;3.20;;;21.00;99.90;;;;;;5051052;28;20485;-53
2023/07/27 10:00:33;;;;;;;12.83;4.13;;;20.70;99.90;;;;;;5048508;28;20493;-53
2023/07/27 10:02:59;;;;;;;7.53;3.50;;;20.40;99.90;;;;;;5051550;28;20510;-54
2023/07/27 10:05:26;;;;;;;5.80;4.03;;;20.10;99.90;;;;;;5046403;28;20557;-54
2023/07/27 10:07:54;;;;;;;4.23;3.93;;;20.00;99.90;;;;;;5052372;28;20552;-53
2023/07/27 10:10:36;;;;;;;9.70;4.73;;;19.90;99.90;;;;;;5052257;28;20482;-55
2023/07/27 10:13:06;;;;;;;4.07;3.60;;;19.70;99.90;;;;;;5052343;28;20477;-54
2023/07/27 10:15:38;;;;;;;3.73;3.20;;;19.40;99.90;;;;;;5052649;28;20529;-54
2023/07/27 10:18:05;;;;;;;12.70;4.30;;;19.20;99.90;;;;;;5053539;28;20901;-54
2023/07/27 10:20:33;;;;;;;4.03;3.47;;;18.90;99.90;;;;;;5050564;28;20458;-54
2023/07/27 10:23:18;;;;;;;4.63;3.73;;;18.90;99.90;;;;;;5046054;28;20485;-53
2023/07/27 10:26:04;;;;;;;4.70;2.83;;;18.80;99.90;;;;;;5042768;28;20457;-53
2023/07/27 10:28:32;;;;;;;5.40;4.50;;;18.60;61.40;;;;;;5047527;28;20468;-54
2023/07/27 10:31:24;;;;;;;5.60;4.50;;;18.10;99.90;;;;;;5051122;28;20926;-53
2023/07/27 10:34:03;;;;;;;5.90;4.70;;;17.70;99.90;;;;;;5044628;28;20486;-54
2023/07/27 10:36:52;;;;;;;6.70;4.60;;;17.60;99.90;;;;;;5049315;28;20465;-54
2023/07/27 10:39:25;;;;;;;5.53;4.30;;;17.60;99.90;;;;;;5041995;28;20951;-54
2023/07/27 10:42:00;;;;;;;5.13;4.23;;;17.50;99.90;;;;;;5044525;28;20462;-54
2023/07/27 10:44:27;;;;;;;5.37;4.63;;;17.60;99.70;;;;;;5051045;28;20454;-54
2023/07/27 10:46:58;;;;;;;6.37;5.13;;;17.70;99.90;;;;;;5052792;28;20528;-54
2023/07/27 10:49:25;;;;;;;12.67;4.40;;;17.70;99.90;;;;;;5051469;28;20546;-53
2023/07/27 10:51:53;;;;;;;7.80;4.67;;;17.80;99.90;;;;;;5049533;28;20517;-54
2023/07/27 10:54:21;;;;;;;6.73;4.67;;;17.80;99.90;;;;;;5041535;28;20550;-54
2023/07/27 10:56:48;;;;;;;7.07;4.80;;;17.90;99.90;;;;;;5052857;28;20548;-54
2023/07/27 10:59:15;;;;;;;8.00;4.60;;;17.90;92.80;;;;;;5039217;28;20507;-54
2023/07/27 11:01:43;;;;;;;6.97;4.63;;;17.90;99.90;;;;;;5050456;28;20458;-53
2023/07/27 11:04:11;;;;;;;5.00;3.77;;;17.90;99.90;;;;;;5051306;28;20535;-53
2023/07/27 11:06:45;;;;;;;6.03;4.33;;;18.00;99.90;;;;;;5044322;28;20489;-53
2023/07/27 11:09:16;;;;;;;9.07;4.97;;;18.10;99.90;;;;;;5053123;28;20454;-54
2023/07/27 11:11:44;;;;;;;4.37;3.97;;;18.20;99.90;;;;;;5051504;28;20481;-54
2023/07/27 11:14:11;;;;;;;4.40;3.90;;;18.40;99.90;;;;;;5051936;28;20458;-53
2023/07/27 11:16:38;;;;;;;5.27;4.13;;;18.40;99.90;;;;;;5039441;28;20920;-54
2023/07/27 11:19:09;;;;;;;6.17;3.53;;;18.50;99.90;;;;;;5046859;28;20492;-54
2023/07/27 11:21:39;;;;;;;4.90;3.80;;;18.50;1.40;;;;;;5050388;28;20462;-54
2023/07/27 11:24:07;;;;;;;8.57;3.73;;;18.60;99.90;;;;;;5050839;28;20919;-53
2023/07/27 11:26:35;;;;;;;6.37;3.70;;;18.60;99.90;;;;;;5038626;28;20498;-53
2023/07/27 11:29:03;;;;;;;7.60;4.07;;;18.70;99.90;;;;;;5050304;28;20885;-53
2023/07/27 11:31:29;;;;;;;10.73;3.70;;;18.70;99.90;;;;;;5049464;28;20532;-54
2023/07/27 11:34:00;;;;;;;4.03;3.73;;;18.60;99.90;;;;;;5051617;28;20593;-53
2023/07/27 11:36:30;;;;;;;7.20;3.83;;;18.60;99.90;;;;;;5042885;28;20470;-54
2023/07/27 11:38:58;;;;;;;9.53;4.10;;;18.60;99.90;;;;;;5044045;28;20462;-54
2023/07/27 11:41:27;;;;;;;5.87;4.03;;;18.50;99.90;;;;;;5049486;28;20455;-53
2023/07/27 11:43:55;;;;;;;4.03;3.27;;;18.60;99.90;;;;;;5046983;28;20492;-53
2023/07/27 11:46:27;;;;;;;4.23;3.93;;;18.60;99.90;;;;;;5038089;28;20458;-53
2023/07/27 11:48:56;;;;;;;6.77;3.27;;;18.60;99.90;;;;;;5046694;28;20550;-55
2023/07/27 11:51:24;;;;;;;6.43;3.10;;;18.70;99.90;;;;;;5046818;28;20547;-54
2023/07/27 11:53:50;;;;;;;4.47;3.70;;;18.70;99.90;;;;;;5045106;28;20478;-55
2023/07/27 11:56:17;;;;;;;5.37;3.37;;;18.70;99.90;;;;;;5051728;28;21017;-55
2023/07/27 11:58:44;;;;;;;4.47;3.17;;;18.60;99.90;;;;;;5052338;28;20489;-55
2023/07/27 12:01:11;;;;;;;5.37;3.60;;;18.70;99.90;;;;;;5040132;28;20821;-55
2023/07/27 12:03:40;;;;;;;4.77;3.77;;;18.70;99.90;;;;;;5046366;28;21106;-55
2023/07/27 12:06:07;;;;;;;6.43;4.00;;;18.60;99.90;;;;;;5047953;28;20556;-55
2023/07/27 12:08:37;;;;;;;7.63;4.60;;;18.40;99.90;;;;;;5042902;28;20553;-55
2023/07/27 12:11:04;;;;;;;6.93;4.23;;;18.30;99.90;;;;;;5041407;28;21029;-55
2023/07/27 12:13:32;;;;;;;4.20;3.80;;;18.20;99.90;;;;;;5040241;28;20663;-56
2023/07/27 12:16:00;;;;;;;3.67;3.37;;;18.10;99.90;;;;;;5049313;28;20527;-55
2023/07/27 12:18:29;;;;;;;8.00;3.70;;;18.10;99.90;;;;;;5046923;28;20553;-56
2023/07/27 12:20:58;;;;;;;4.60;3.83;;;18.10;99.90;;;;;;5050395;28;20912;-54
2023/07/27 12:23:26;;;;;;;8.87;4.17;;;18.20;99.90;;;;;;5048072;28;20520;-54
2023/07/27 12:25:54;;;;;;;5.87;3.87;;;18.20;99.90;;;;;;5050705;28;20527;-54
2023/07/27 12:28:21;;;;;;;5.53;3.57;;;18.20;99.90;;;;;;5045374;28;20884;-53
2023/07/27 12:30:47;;;;;;;8.43;3.90;;;18.30;99.90;;;;;;5050086;28;20529;-55
2023/07/27 12:33:14;;;;;;;5.00;4.13;;;18.30;99.90;;;;;;5041221;28;20608;-55
2023/07/27 12:35:41;;;;;;;5.53;3.43;;;18.30;99.90;;;;;;5048760;28;20496;-55
2023/07/27 12:38:09;;;;;;;7.63;4.07;;;18.30;99.90;;;;;;5047540;28;20890;-55
2023/07/27 12:40:35;;;;;;;3.83;3.53;;;18.30;99.90;;;;;;5043260;28;20545;-54
2023/07/27 12:43:02;;;;;;;6.00;4.00;;;18.30;99.90;;;;;;5042226;28;20576;-54
2023/07/27 12:45:29;;;;;;;13.90;4.90;;;18.30;99.90;;;;;;5042206;28;20462;-54
2023/07/27 12:47:55;;;;;;;7.67;4.23;;;18.40;99.90;;;;;;5048898;28;20545;-55
2023/07/27 12:50:22;;;;;;;5.30;4.40;;;18.40;99.90;;;;;;5038356;28;20542;-54